sensor_id;sensor_type;location;lat;lon;timestamp;P1;durP1;ratioP1;P2;durP2;ratioP2
33074;SDS011;19433;51.292;6.868;2023-11-19T00:12:59;4.57;;;4.27;;
33074;SDS011;19433;51.292;6.868;2023-11-19T00:15:25;3.97;;;3.67;;
33074;SDS011;19433;51.292;6.868;2023-11-19T00:17:50;4.07;;;3.67;;
33074;SDS011;19433;51.292;6.868;2023-11-19T00:20:17;4.67;;;4.27;;
33074;SDS011;19433;51.292;6.868;2023-11-19T00:22:43;5.50;;;3.90;;
33074;SDS011;19433;51.292;6.868;2023-11-19T00:25:09;4.30;;;3.97;;
33074;SDS011;19433;51.292;6.868;2023-11-19T00:27:35;5.93;;;3.87;;
33074;SDS011;19433;51.292;6.868;2023-11-19T00:30:04;3.73;;;3.43;;
33074;SDS011;19433;51.292;6.868;2023-11-19T00:32:31;4.17;;;3.87;;
33074;SDS011;19433;51.292;6.868;2023-11-19T00:34:57;4.70;;;3.77;;
33074;SDS011;19433;51.292;6.868;2023-11-19T00:37:22;6.20;;;3.90;;
33074;SDS011;19433;51.292;6.868;2023-11-19T00:39:48;14.03;;;3.93;;
33074;SDS011;19433;51.292;6.868;2023-11-19T00:42:13;4.00;;;3.60;;
33074;SDS011;19433;51.292;6.868;2023-11-19T00:44:39;3.90;;;3.60;;
33074;SDS011;19433;51.292;6.868;2023-11-19T00:47:04;6.43;;;4.57;;
33074;SDS011;19433;51.292;6.868;2023-11-19T00:49:30;3.83;;;3.53;;
33074;SDS011;19433;51.292;6.868;2023-11-19T00:51:57;6.13;;;2.93;;
33074;SDS011;19433;51.292;6.868;2023-11-19T00:54:23;4.07;;;3.67;;
33074;SDS011;19433;51.292;6.868;2023-11-19T00:56:50;4.50;;;3.57;;
33074;SDS011;19433;51.292;6.868;2023-11-19T00:59:17;4.63;;;3.50;;
33074;SDS011;19433;51.292;6.868;2023-11-19T01:01:42;7.57;;;3.97;;
33074;SDS011;19433;51.292;6.868;2023-11-19T01:04:08;4.23;;;3.50;;
33074;SDS011;19433;51.292;6.868;2023-11-19T01:06:33;4.17;;;3.87;;
33074;SDS011;19433;51.292;6.868;2023-11-19T01:08:59;4.47;;;4.07;;
33074;SDS011;19433;51.292;6.868;2023-11-19T01:11:24;4.43;;;3.40;;
33074;SDS011;19433;51.292;6.868;2023-11-19T01:13:50;6.23;;;3.57;;
33074;SDS011;19433;51.292;6.868;2023-11-19T01:16:16;3.73;;;3.23;;
33074;SDS011;19433;51.292;6.868;2023-11-19T01:18:42;3.93;;;3.57;;
33074;SDS011;19433;51.292;6.868;2023-11-19T01:21:08;3.37;;;3.17;;
33074;SDS011;19433;51.292;6.868;2023-11-19T01:23:33;4.63;;;3.70;;
33074;SDS011;19433;51.292;6.868;2023-11-19T01:26:00;3.80;;;3.50;;
33074;SDS011;19433;51.292;6.868;2023-11-19T01:28:25;4.83;;;3.13;;
33074;SDS011;19433;51.292;6.868;2023-11-19T01:30:51;3.67;;;3.10;;
33074;SDS011;19433;51.292;6.868;2023-11-19T01:33:17;3.10;;;2.80;;
33074;SDS011;19433;51.292;6.868;2023-11-19T01:35:42;2.50;;;2.40;;
33074;SDS011;19433;51.292;6.868;2023-11-19T01:38:07;2.80;;;2.63;;
33074;SDS011;19433;51.292;6.868;2023-11-19T01:40:36;2.77;;;2.07;;
33074;SDS011;19433;51.292;6.868;2023-11-19T01:43:02;1.90;;;1.80;;
33074;SDS011;19433;51.292;6.868;2023-11-19T01:45:29;1.90;;;1.80;;
33074;SDS011;19433;51.292;6.868;2023-11-19T01:47:56;2.10;;;2.00;;
33074;SDS011;19433;51.292;6.868;2023-11-19T01:50:22;2.27;;;1.83;;
33074;SDS011;19433;51.292;6.868;2023-11-19T01:52:49;1.70;;;1.60;;
33074;SDS011;19433;51.292;6.868;2023-11-19T01:55:17;5.30;;;1.77;;
33074;SDS011;19433;51.292;6.868;2023-11-19T01:57:42;2.57;;;1.63;;
33074;SDS011;19433;51.292;6.868;2023-11-19T02:00:08;5.87;;;2.03;;
33074;SDS011;19433;51.292;6.868;2023-11-19T02:02:37;5.10;;;1.60;;
33074;SDS011;19433;51.292;6.868;2023-11-19T02:05:04;1.80;;;1.57;;
33074;SDS011;19433;51.292;6.868;2023-11-19T02:07:31;1.73;;;1.63;;
33074;SDS011;19433;51.292;6.868;2023-11-19T02:09:56;2.70;;;1.80;;
33074;SDS011;19433;51.292;6.868;2023-11-19T02:12:24;4.90;;;2.20;;
33074;SDS011;19433;51.292;6.868;2023-11-19T02:14:49;6.30;;;2.07;;
33074;SDS011;19433;51.292;6.868;2023-11-19T02:17:30;3.80;;;1.90;;
33074;SDS011;19433;51.292;6.868;2023-11-19T02:19:56;5.00;;;2.27;;
33074;SDS011;19433;51.292;6.868;2023-11-19T02:22:22;2.73;;;2.50;;
33074;SDS011;19433;51.292;6.868;2023-11-19T02:24:48;2.40;;;2.13;;
33074;SDS011;19433;51.292;6.868;2023-11-19T02:27:19;4.80;;;2.30;;
33074;SDS011;19433;51.292;6.868;2023-11-19T02:29:56;7.33;;;2.23;;
33074;SDS011;19433;51.292;6.868;2023-11-19T02:32:22;7.30;;;2.50;;
33074;SDS011;19433;51.292;6.868;2023-11-19T02:34:48;10.43;;;2.80;;
33074;SDS011;19433;51.292;6.868;2023-11-19T02:37:13;2.70;;;2.43;;
33074;SDS011;19433;51.292;6.868;2023-11-19T02:39:39;6.10;;;2.40;;
33074;SDS011;19433;51.292;6.868;2023-11-19T02:42:06;7.30;;;2.70;;
33074;SDS011;19433;51.292;6.868;2023-11-19T02:44:33;4.20;;;2.60;;
33074;SDS011;19433;51.292;6.868;2023-11-19T02:46:59;4.13;;;2.57;;
33074;SDS011;19433;51.292;6.868;2023-11-19T02:49:24;11.23;;;3.40;;
33074;SDS011;19433;51.292;6.868;2023-11-19T02:51:51;7.43;;;3.13;;
33074;SDS011;19433;51.292;6.868;2023-11-19T02:54:16;5.90;;;3.20;;
33074;SDS011;19433;51.292;6.868;2023-11-19T02:56:42;9.50;;;3.43;;
33074;SDS011;19433;51.292;6.868;2023-11-19T02:59:07;10.27;;;4.07;;
33074;SDS011;19433;51.292;6.868;2023-11-19T03:01:40;13.23;;;4.27;;
33074;SDS011;19433;51.292;6.868;2023-11-19T03:04:08;12.20;;;3.90;;
33074;SDS011;19433;51.292;6.868;2023-11-19T03:06:37;12.43;;;4.17;;
33074;SDS011;19433;51.292;6.868;2023-11-19T03:09:02;10.63;;;4.20;;
33074;SDS011;19433;51.292;6.868;2023-11-19T03:11:35;10.40;;;4.43;;
33074;SDS011;19433;51.292;6.868;2023-11-19T03:14:00;16.50;;;4.90;;
33074;SDS011;19433;51.292;6.868;2023-11-19T03:16:28;7.67;;;4.10;;
33074;SDS011;19433;51.292;6.868;2023-11-19T03:18:54;11.63;;;4.40;;
33074;SDS011;19433;51.292;6.868;2023-11-19T03:21:26;13.23;;;5.13;;
33074;SDS011;19433;51.292;6.868;2023-11-19T03:23:52;13.60;;;4.63;;
33074;SDS011;19433;51.292;6.868;2023-11-19T03:26:18;7.93;;;3.63;;
33074;SDS011;19433;51.292;6.868;2023-11-19T03:28:43;15.03;;;5.47;;
33074;SDS011;19433;51.292;6.868;2023-11-19T03:31:08;17.70;;;4.73;;
33074;SDS011;19433;51.292;6.868;2023-11-19T03:33:33;12.63;;;4.83;;
33074;SDS011;19433;51.292;6.868;2023-11-19T03:35:59;16.60;;;4.77;;
33074;SDS011;19433;51.292;6.868;2023-11-19T03:38:24;16.10;;;4.93;;
33074;SDS011;19433;51.292;6.868;2023-11-19T03:40:49;14.67;;;4.60;;
33074;SDS011;19433;51.292;6.868;2023-11-19T03:43:15;8.80;;;3.90;;
33074;SDS011;19433;51.292;6.868;2023-11-19T03:45:40;21.63;;;5.07;;
33074;SDS011;19433;51.292;6.868;2023-11-19T03:48:06;14.50;;;5.50;;
33074;SDS011;19433;51.292;6.868;2023-11-19T03:50:31;14.80;;;4.53;;
33074;SDS011;19433;51.292;6.868;2023-11-19T03:52:56;17.17;;;4.67;;
33074;SDS011;19433;51.292;6.868;2023-11-19T03:55:21;18.30;;;5.20;;
33074;SDS011;19433;51.292;6.868;2023-11-19T03:57:47;15.37;;;4.53;;
33074;SDS011;19433;51.292;6.868;2023-11-19T04:00:13;11.77;;;5.73;;
33074;SDS011;19433;51.292;6.868;2023-11-19T04:02:40;16.27;;;5.00;;
33074;SDS011;19433;51.292;6.868;2023-11-19T04:05:06;16.67;;;6.30;;
33074;SDS011;19433;51.292;6.868;2023-11-19T04:07:32;15.03;;;5.90;;
33074;SDS011;19433;51.292;6.868;2023-11-19T04:09:57;17.23;;;4.93;;
33074;SDS011;19433;51.292;6.868;2023-11-19T04:12:23;20.50;;;5.80;;
33074;SDS011;19433;51.292;6.868;2023-11-19T04:14:49;14.90;;;5.37;;
33074;SDS011;19433;51.292;6.868;2023-11-19T04:17:14;13.77;;;5.00;;
33074;SDS011;19433;51.292;6.868;2023-11-19T04:19:39;20.07;;;5.47;;
33074;SDS011;19433;51.292;6.868;2023-11-19T04:22:07;15.33;;;5.67;;
33074;SDS011;19433;51.292;6.868;2023-11-19T04:24:35;13.20;;;5.20;;
33074;SDS011;19433;51.292;6.868;2023-11-19T04:27:00;15.40;;;4.50;;
33074;SDS011;19433;51.292;6.868;2023-11-19T04:29:26;21.60;;;5.47;;
33074;SDS011;19433;51.292;6.868;2023-11-19T04:31:51;18.67;;;7.10;;
33074;SDS011;19433;51.292;6.868;2023-11-19T04:34:16;11.30;;;5.10;;
33074;SDS011;19433;51.292;6.868;2023-11-19T04:36:42;24.37;;;6.13;;
33074;SDS011;19433;51.292;6.868;2023-11-19T04:39:08;24.83;;;5.23;;
33074;SDS011;19433;51.292;6.868;2023-11-19T04:41:34;17.77;;;6.00;;
33074;SDS011;19433;51.292;6.868;2023-11-19T04:44:01;19.67;;;6.43;;
33074;SDS011;19433;51.292;6.868;2023-11-19T04:46:26;21.97;;;5.23;;
33074;SDS011;19433;51.292;6.868;2023-11-19T04:48:51;18.77;;;4.47;;
33074;SDS011;19433;51.292;6.868;2023-11-19T04:51:17;13.97;;;4.60;;
33074;SDS011;19433;51.292;6.868;2023-11-19T04:53:42;16.83;;;5.23;;
33074;SDS011;19433;51.292;6.868;2023-11-19T04:56:08;28.30;;;5.60;;
33074;SDS011;19433;51.292;6.868;2023-11-19T04:58:34;22.47;;;4.80;;
33074;SDS011;19433;51.292;6.868;2023-11-19T05:01:00;23.00;;;5.27;;
33074;SDS011;19433;51.292;6.868;2023-11-19T05:03:26;13.87;;;5.30;;
33074;SDS011;19433;51.292;6.868;2023-11-19T05:05:51;26.13;;;5.20;;
33074;SDS011;19433;51.292;6.868;2023-11-19T05:08:17;20.47;;;6.33;;
33074;SDS011;19433;51.292;6.868;2023-11-19T05:10:42;18.03;;;4.83;;
33074;SDS011;19433;51.292;6.868;2023-11-19T05:13:07;14.13;;;5.23;;
33074;SDS011;19433;51.292;6.868;2023-11-19T05:15:33;24.20;;;5.43;;
33074;SDS011;19433;51.292;6.868;2023-11-19T05:17:58;25.37;;;5.80;;
33074;SDS011;19433;51.292;6.868;2023-11-19T05:20:23;20.73;;;5.97;;
33074;SDS011;19433;51.292;6.868;2023-11-19T05:22:49;16.80;;;5.13;;
33074;SDS011;19433;51.292;6.868;2023-11-19T05:25:18;13.30;;;5.30;;
33074;SDS011;19433;51.292;6.868;2023-11-19T05:27:45;21.70;;;6.00;;
33074;SDS011;19433;51.292;6.868;2023-11-19T05:30:10;17.60;;;5.17;;
33074;SDS011;19433;51.292;6.868;2023-11-19T05:32:35;18.70;;;5.87;;
33074;SDS011;19433;51.292;6.868;2023-11-19T05:35:01;18.60;;;5.77;;
33074;SDS011;19433;51.292;6.868;2023-11-19T05:37:26;14.40;;;5.00;;
33074;SDS011;19433;51.292;6.868;2023-11-19T05:39:52;24.90;;;5.80;;
33074;SDS011;19433;51.292;6.868;2023-11-19T05:42:17;22.97;;;5.63;;
33074;SDS011;19433;51.292;6.868;2023-11-19T05:44:43;21.60;;;6.10;;
33074;SDS011;19433;51.292;6.868;2023-11-19T05:47:08;15.40;;;4.97;;
33074;SDS011;19433;51.292;6.868;2023-11-19T05:49:33;17.00;;;5.43;;
33074;SDS011;19433;51.292;6.868;2023-11-19T05:51:59;20.57;;;6.03;;
33074;SDS011;19433;51.292;6.868;2023-11-19T05:54:25;20.60;;;5.97;;
33074;SDS011;19433;51.292;6.868;2023-11-19T05:56:51;20.50;;;5.53;;
33074;SDS011;19433;51.292;6.868;2023-11-19T05:59:19;30.43;;;7.20;;
33074;SDS011;19433;51.292;6.868;2023-11-19T06:01:44;24.63;;;6.23;;
33074;SDS011;19433;51.292;6.868;2023-11-19T06:04:09;18.17;;;4.93;;
33074;SDS011;19433;51.292;6.868;2023-11-19T06:06:35;18.20;;;6.87;;
33074;SDS011;19433;51.292;6.868;2023-11-19T06:09:03;20.13;;;4.77;;
33074;SDS011;19433;51.292;6.868;2023-11-19T06:11:28;18.77;;;4.87;;
33074;SDS011;19433;51.292;6.868;2023-11-19T06:13:54;15.87;;;5.53;;
33074;SDS011;19433;51.292;6.868;2023-11-19T06:16:19;22.83;;;5.00;;
33074;SDS011;19433;51.292;6.868;2023-11-19T06:18:45;20.00;;;6.00;;
33074;SDS011;19433;51.292;6.868;2023-11-19T06:21:10;20.70;;;5.00;;
33074;SDS011;19433;51.292;6.868;2023-11-19T06:23:37;23.63;;;6.43;;
33074;SDS011;19433;51.292;6.868;2023-11-19T06:26:02;19.60;;;4.93;;
33074;SDS011;19433;51.292;6.868;2023-11-19T06:28:28;14.87;;;4.33;;
33074;SDS011;19433;51.292;6.868;2023-11-19T06:30:53;18.70;;;5.20;;
33074;SDS011;19433;51.292;6.868;2023-11-19T06:36:20;14.37;;;5.20;;
33074;SDS011;19433;51.292;6.868;2023-11-19T06:38:48;17.67;;;5.40;;
33074;SDS011;19433;51.292;6.868;2023-11-19T06:41:14;27.20;;;5.57;;
33074;SDS011;19433;51.292;6.868;2023-11-19T06:43:41;17.13;;;6.00;;
33074;SDS011;19433;51.292;6.868;2023-11-19T06:46:16;20.60;;;7.00;;
33074;SDS011;19433;51.292;6.868;2023-11-19T06:49:04;21.70;;;6.30;;
33074;SDS011;19433;51.292;6.868;2023-11-19T06:51:29;18.53;;;6.00;;
33074;SDS011;19433;51.292;6.868;2023-11-19T06:53:54;20.43;;;6.27;;
33074;SDS011;19433;51.292;6.868;2023-11-19T06:56:41;23.40;;;6.17;;
33074;SDS011;19433;51.292;6.868;2023-11-19T06:59:06;20.27;;;5.97;;
33074;SDS011;19433;51.292;6.868;2023-11-19T07:01:35;26.07;;;6.13;;
33074;SDS011;19433;51.292;6.868;2023-11-19T07:04:01;22.70;;;6.00;;
33074;SDS011;19433;51.292;6.868;2023-11-19T07:06:41;25.00;;;7.67;;
33074;SDS011;19433;51.292;6.868;2023-11-19T07:09:10;21.03;;;5.00;;
33074;SDS011;19433;51.292;6.868;2023-11-19T07:11:39;22.07;;;6.63;;
33074;SDS011;19433;51.292;6.868;2023-11-19T07:14:10;24.27;;;6.17;;
33074;SDS011;19433;51.292;6.868;2023-11-19T07:16:36;20.90;;;5.40;;
33074;SDS011;19433;51.292;6.868;2023-11-19T07:19:05;20.20;;;5.57;;
33074;SDS011;19433;51.292;6.868;2023-11-19T07:21:31;15.43;;;5.03;;
33074;SDS011;19433;51.292;6.868;2023-11-19T07:23:59;20.67;;;6.20;;
33074;SDS011;19433;51.292;6.868;2023-11-19T07:26:25;17.53;;;5.90;;
33074;SDS011;19433;51.292;6.868;2023-11-19T07:29:06;15.60;;;5.23;;
33074;SDS011;19433;51.292;6.868;2023-11-19T07:31:56;12.30;;;4.47;;
33074;SDS011;19433;51.292;6.868;2023-11-19T07:34:24;21.70;;;5.23;;
33074;SDS011;19433;51.292;6.868;2023-11-19T07:36:52;16.90;;;5.03;;
33074;SDS011;19433;51.292;6.868;2023-11-19T07:39:18;23.40;;;5.10;;
33074;SDS011;19433;51.292;6.868;2023-11-19T07:41:47;30.27;;;5.30;;
33074;SDS011;19433;51.292;6.868;2023-11-19T07:44:16;29.20;;;5.80;;
33074;SDS011;19433;51.292;6.868;2023-11-19T07:46:41;23.70;;;5.67;;
33074;SDS011;19433;51.292;6.868;2023-11-19T07:49:08;20.13;;;6.07;;
33074;SDS011;19433;51.292;6.868;2023-11-19T07:51:35;17.70;;;5.50;;
33074;SDS011;19433;51.292;6.868;2023-11-19T07:54:01;23.43;;;6.27;;
33074;SDS011;19433;51.292;6.868;2023-11-19T07:56:26;25.03;;;5.50;;
33074;SDS011;19433;51.292;6.868;2023-11-19T07:58:52;25.70;;;5.90;;
33074;SDS011;19433;51.292;6.868;2023-11-19T08:01:17;22.17;;;4.60;;
33074;SDS011;19433;51.292;6.868;2023-11-19T08:03:43;21.53;;;5.70;;
33074;SDS011;19433;51.292;6.868;2023-11-19T08:06:09;18.73;;;5.33;;
33074;SDS011;19433;51.292;6.868;2023-11-19T08:08:41;17.97;;;5.67;;
33074;SDS011;19433;51.292;6.868;2023-11-19T08:11:08;16.37;;;5.20;;
33074;SDS011;19433;51.292;6.868;2023-11-19T08:13:33;18.73;;;6.07;;
33074;SDS011;19433;51.292;6.868;2023-11-19T08:15:58;20.87;;;6.70;;
33074;SDS011;19433;51.292;6.868;2023-11-19T08:18:24;19.20;;;5.00;;
33074;SDS011;19433;51.292;6.868;2023-11-19T08:20:49;13.10;;;5.37;;
33074;SDS011;19433;51.292;6.868;2023-11-19T08:23:18;21.90;;;5.53;;
33074;SDS011;19433;51.292;6.868;2023-11-19T08:25:43;21.43;;;5.50;;
33074;SDS011;19433;51.292;6.868;2023-11-19T08:28:09;19.27;;;5.93;;
33074;SDS011;19433;51.292;6.868;2023-11-19T08:30:34;18.13;;;5.60;;
33074;SDS011;19433;51.292;6.868;2023-11-19T08:33:00;18.43;;;6.67;;
33074;SDS011;19433;51.292;6.868;2023-11-19T08:35:27;21.73;;;6.67;;
33074;SDS011;19433;51.292;6.868;2023-11-19T08:37:53;14.73;;;5.10;;
33074;SDS011;19433;51.292;6.868;2023-11-19T08:40:19;21.57;;;5.67;;
33074;SDS011;19433;51.292;6.868;2023-11-19T08:42:45;20.53;;;6.20;;
33074;SDS011;19433;51.292;6.868;2023-11-19T08:45:10;16.40;;;5.53;;
33074;SDS011;19433;51.292;6.868;2023-11-19T08:47:36;16.87;;;5.87;;
33074;SDS011;19433;51.292;6.868;2023-11-19T08:50:02;14.93;;;4.67;;
33074;SDS011;19433;51.292;6.868;2023-11-19T08:52:29;21.87;;;5.70;;
33074;SDS011;19433;51.292;6.868;2023-11-19T08:54:57;19.77;;;6.60;;
33074;SDS011;19433;51.292;6.868;2023-11-19T08:57:22;14.23;;;4.50;;
33074;SDS011;19433;51.292;6.868;2023-11-19T08:59:48;16.20;;;5.90;;
33074;SDS011;19433;51.292;6.868;2023-11-19T09:02:13;14.10;;;4.33;;
33074;SDS011;19433;51.292;6.868;2023-11-19T09:04:38;18.93;;;5.80;;
33074;SDS011;19433;51.292;6.868;2023-11-19T09:07:04;18.17;;;5.47;;
33074;SDS011;19433;51.292;6.868;2023-11-19T09:09:29;17.20;;;5.63;;
33074;SDS011;19433;51.292;6.868;2023-11-19T09:11:55;21.97;;;6.10;;
33074;SDS011;19433;51.292;6.868;2023-11-19T09:14:20;14.30;;;4.60;;
33074;SDS011;19433;51.292;6.868;2023-11-19T09:16:50;17.80;;;5.37;;
33074;SDS011;19433;51.292;6.868;2023-11-19T09:19:16;21.77;;;6.30;;
33074;SDS011;19433;51.292;6.868;2023-11-19T09:21:42;20.47;;;5.40;;
33074;SDS011;19433;51.292;6.868;2023-11-19T09:24:07;20.57;;;6.33;;
33074;SDS011;19433;51.292;6.868;2023-11-19T09:26:33;18.20;;;5.60;;
33074;SDS011;19433;51.292;6.868;2023-11-19T09:28:58;16.60;;;5.10;;
33074;SDS011;19433;51.292;6.868;2023-11-19T09:31:23;18.67;;;5.83;;
33074;SDS011;19433;51.292;6.868;2023-11-19T09:33:49;18.97;;;5.90;;
33074;SDS011;19433;51.292;6.868;2023-11-19T09:36:14;13.53;;;5.60;;
33074;SDS011;19433;51.292;6.868;2023-11-19T09:38:41;15.20;;;5.80;;
33074;SDS011;19433;51.292;6.868;2023-11-19T09:41:07;21.70;;;5.63;;
33074;SDS011;19433;51.292;6.868;2023-11-19T09:43:33;26.97;;;5.73;;
33074;SDS011;19433;51.292;6.868;2023-11-19T09:46:01;17.63;;;6.80;;
33074;SDS011;19433;51.292;6.868;2023-11-19T09:48:32;21.50;;;6.63;;
33074;SDS011;19433;51.292;6.868;2023-11-19T09:50:59;15.70;;;4.90;;
33074;SDS011;19433;51.292;6.868;2023-11-19T09:53:26;15.90;;;4.93;;
33074;SDS011;19433;51.292;6.868;2023-11-19T09:55:51;13.63;;;5.33;;
33074;SDS011;19433;51.292;6.868;2023-11-19T09:58:18;17.50;;;5.87;;
33074;SDS011;19433;51.292;6.868;2023-11-19T10:00:43;19.07;;;6.00;;
33074;SDS011;19433;51.292;6.868;2023-11-19T10:03:09;24.10;;;7.00;;
33074;SDS011;19433;51.292;6.868;2023-11-19T10:05:37;20.57;;;5.40;;
33074;SDS011;19433;51.292;6.868;2023-11-19T10:08:03;18.73;;;6.63;;
33074;SDS011;19433;51.292;6.868;2023-11-19T10:10:29;18.97;;;6.17;;
33074;SDS011;19433;51.292;6.868;2023-11-19T10:12:55;15.30;;;5.70;;
33074;SDS011;19433;51.292;6.868;2023-11-19T10:15:21;18.83;;;6.00;;
33074;SDS011;19433;51.292;6.868;2023-11-19T10:17:47;19.77;;;5.97;;
33074;SDS011;19433;51.292;6.868;2023-11-19T10:20:13;18.60;;;5.50;;
33074;SDS011;19433;51.292;6.868;2023-11-19T10:22:38;19.80;;;5.47;;
33074;SDS011;19433;51.292;6.868;2023-11-19T10:25:04;19.33;;;7.23;;
33074;SDS011;19433;51.292;6.868;2023-11-19T10:27:30;18.90;;;5.60;;
33074;SDS011;19433;51.292;6.868;2023-11-19T10:29:59;19.40;;;6.10;;
33074;SDS011;19433;51.292;6.868;2023-11-19T10:32:24;20.73;;;6.77;;
33074;SDS011;19433;51.292;6.868;2023-11-19T10:34:50;19.57;;;6.20;;
33074;SDS011;19433;51.292;6.868;2023-11-19T10:37:28;18.60;;;6.50;;
33074;SDS011;19433;51.292;6.868;2023-11-19T10:39:57;17.67;;;4.97;;
33074;SDS011;19433;51.292;6.868;2023-11-19T10:42:22;16.43;;;5.67;;
33074;SDS011;19433;51.292;6.868;2023-11-19T10:44:48;17.07;;;4.90;;
33074;SDS011;19433;51.292;6.868;2023-11-19T10:47:14;27.30;;;8.10;;
33074;SDS011;19433;51.292;6.868;2023-11-19T10:49:43;19.37;;;4.97;;
33074;SDS011;19433;51.292;6.868;2023-11-19T10:52:08;16.97;;;5.10;;
33074;SDS011;19433;51.292;6.868;2023-11-19T10:54:34;17.93;;;5.00;;
33074;SDS011;19433;51.292;6.868;2023-11-19T10:57:00;20.70;;;6.80;;
33074;SDS011;19433;51.292;6.868;2023-11-19T10:59:28;19.13;;;5.23;;
33074;SDS011;19433;51.292;6.868;2023-11-19T11:01:55;13.97;;;5.33;;
33074;SDS011;19433;51.292;6.868;2023-11-19T11:04:24;11.40;;;4.90;;
